Accueil
METAR-TAF:

METAR-TAF

Aéroports :

Base aérienne de Nörvenich

Nörvenich, Allemagne

latitude: 50-50N, longitude: 006-40E, altitude: 118 m

Observation

Le bulletin a été fait il y a 58 minutes, à 18:20 UTC
Vent 3 kt de ouest/sud-ouest
Température 11°C
Humidité 71%
Pression 1030 hPa
Visibilité 10 km ou plus
Quelques nuages à une hauteur de 30000 ft

METAR: ETNN 061820Z 24003KT 9999 FEW300 11/06 Q1030 BLU+BLU+

Heure: 21:18 (19:18 UTC)

Prévision

Le bulletin a été fait il y a 3 heures et 14 minutes, à 16:04 UTC
Prévision valable du 06 à 17 UTC au 07 à 02 UTC
Vent 5 kt de sud/sud-ouest
Visibilité 10 km ou plus
Ciel clair

TAF: ETNN 061604Z 0617/0702 20005KT 9999 NSW SKC BY ETGL

Observations et prévisions météorologiques de plus de 4000 aéroports (messages METAR et TAF).

Les stations disponibles sont représentées par des disques jaunes et rouges sur la carte.

Passer la souris dessus pour voir le nom de la station.

Cliquer dessus pour voir les observations et prévisions météorologiques.

Pour changer de carte: cliquez sur les boutons verts avec une croix noire pour zoomer, sur le bouton vert avec un tiret pour effectuer un zoom arrière, ou sur les flèches vertes pour les cartes adjacentes.


METAR-TAF: